sensor_id;sensor_type;location;lat;lon;timestamp;P1;durP1;ratioP1;P2;durP2;ratioP2
2191;SDS011;1102;49.718;11.902;2022-12-18T00:01:18;34.73;;;19.97;;
2191;SDS011;1102;49.718;11.902;2022-12-18T00:03:45;41.87;;;20.43;;
2191;SDS011;1102;49.718;11.902;2022-12-18T00:06:13;43.27;;;19.50;;
2191;SDS011;1102;49.718;11.902;2022-12-18T00:08:41;32.30;;;20.83;;
2191;SDS011;1102;49.718;11.902;2022-12-18T00:11:10;33.77;;;19.20;;
2191;SDS011;1102;49.718;11.902;2022-12-18T00:13:38;40.80;;;23.23;;
2191;SDS011;1102;49.718;11.902;2022-12-18T00:16:06;33.60;;;20.00;;
2191;SDS011;1102;49.718;11.902;2022-12-18T00:18:35;39.73;;;20.93;;
2191;SDS011;1102;49.718;11.902;2022-12-18T00:21:04;32.10;;;20.57;;
2191;SDS011;1102;49.718;11.902;2022-12-18T00:23:33;32.70;;;16.70;;
2191;SDS011;1102;49.718;11.902;2022-12-18T00:26:04;39.47;;;21.73;;
2191;SDS011;1102;49.718;11.902;2022-12-18T00:28:32;34.30;;;21.03;;
2191;SDS011;1102;49.718;11.902;2022-12-18T00:31:04;35.47;;;18.30;;
2191;SDS011;1102;49.718;11.902;2022-12-18T00:33:36;39.77;;;18.70;;
2191;SDS011;1102;49.718;11.902;2022-12-18T00:36:04;38.53;;;19.87;;
2191;SDS011;1102;49.718;11.902;2022-12-18T00:38:33;33.53;;;17.30;;
2191;SDS011;1102;49.718;11.902;2022-12-18T00:41:01;41.93;;;19.07;;
2191;SDS011;1102;49.718;11.902;2022-12-18T00:43:28;39.30;;;16.83;;
2191;SDS011;1102;49.718;11.902;2022-12-18T00:45:55;26.63;;;15.47;;
2191;SDS011;1102;49.718;11.902;2022-12-18T00:48:22;32.27;;;18.07;;
2191;SDS011;1102;49.718;11.902;2022-12-18T00:50:49;41.80;;;19.07;;
2191;SDS011;1102;49.718;11.902;2022-12-18T00:53:16;38.73;;;17.97;;
2191;SDS011;1102;49.718;11.902;2022-12-18T00:55:44;39.60;;;21.20;;
2191;SDS011;1102;49.718;11.902;2022-12-18T00:58:12;35.67;;;18.80;;
2191;SDS011;1102;49.718;11.902;2022-12-18T01:00:40;48.73;;;19.50;;
2191;SDS011;1102;49.718;11.902;2022-12-18T01:03:10;42.17;;;19.73;;
2191;SDS011;1102;49.718;11.902;2022-12-18T01:05:40;23.40;;;18.60;;
2191;SDS011;1102;49.718;11.902;2022-12-18T01:08:08;47.03;;;19.43;;
2191;SDS011;1102;49.718;11.902;2022-12-18T01:10:35;38.53;;;18.37;;
2191;SDS011;1102;49.718;11.902;2022-12-18T01:13:02;52.97;;;21.97;;
2191;SDS011;1102;49.718;11.902;2022-12-18T01:15:29;44.50;;;22.07;;
2191;SDS011;1102;49.718;11.902;2022-12-18T01:17:55;44.13;;;21.93;;
2191;SDS011;1102;49.718;11.902;2022-12-18T01:20:25;50.07;;;20.90;;
2191;SDS011;1102;49.718;11.902;2022-12-18T01:22:54;48.33;;;21.17;;
2191;SDS011;1102;49.718;11.902;2022-12-18T01:25:21;59.87;;;26.67;;
2191;SDS011;1102;49.718;11.902;2022-12-18T01:27:49;49.40;;;23.83;;
2191;SDS011;1102;49.718;11.902;2022-12-18T01:30:16;41.43;;;22.40;;
2191;SDS011;1102;49.718;11.902;2022-12-18T01:32:44;60.03;;;26.17;;
2191;SDS011;1102;49.718;11.902;2022-12-18T01:35:10;56.50;;;23.10;;
2191;SDS011;1102;49.718;11.902;2022-12-18T01:37:37;52.20;;;21.97;;
2191;SDS011;1102;49.718;11.902;2022-12-18T01:40:04;73.60;;;26.00;;
2191;SDS011;1102;49.718;11.902;2022-12-18T01:42:32;73.43;;;26.57;;
2191;SDS011;1102;49.718;11.902;2022-12-18T01:47:36;49.30;;;25.23;;
2191;SDS011;1102;49.718;11.902;2022-12-18T01:50:06;51.90;;;28.50;;
2191;SDS011;1102;49.718;11.902;2022-12-18T01:52:39;47.87;;;21.80;;
2191;SDS011;1102;49.718;11.902;2022-12-18T01:55:11;41.57;;;24.73;;
2191;SDS011;1102;49.718;11.902;2022-12-18T01:57:39;61.03;;;26.20;;
2191;SDS011;1102;49.718;11.902;2022-12-18T02:00:08;49.47;;;22.50;;
2191;SDS011;1102;49.718;11.902;2022-12-18T02:02:41;57.10;;;24.77;;
2191;SDS011;1102;49.718;11.902;2022-12-18T02:05:11;45.47;;;21.87;;
2191;SDS011;1102;49.718;11.902;2022-12-18T02:08:29;31.73;;;17.30;;
2191;SDS011;1102;49.718;11.902;2022-12-18T02:13:38;32.50;;;16.80;;
2191;SDS011;1102;49.718;11.902;2022-12-18T02:16:19;48.30;;;18.20;;
2191;SDS011;1102;49.718;11.902;2022-12-18T02:18:57;42.93;;;22.00;;
2191;SDS011;1102;49.718;11.902;2022-12-18T02:21:52;38.57;;;15.63;;
2191;SDS011;1102;49.718;11.902;2022-12-18T02:27:16;30.00;;;18.00;;
2191;SDS011;1102;49.718;11.902;2022-12-18T02:29:48;41.17;;;17.30;;
2191;SDS011;1102;49.718;11.902;2022-12-18T02:32:28;31.90;;;16.70;;
2191;SDS011;1102;49.718;11.902;2022-12-18T02:35:02;30.10;;;15.13;;
2191;SDS011;1102;49.718;11.902;2022-12-18T02:37:33;45.60;;;18.70;;
2191;SDS011;1102;49.718;11.902;2022-12-18T02:40:04;35.00;;;17.27;;
2191;SDS011;1102;49.718;11.902;2022-12-18T02:42:34;49.40;;;18.30;;
2191;SDS011;1102;49.718;11.902;2022-12-18T02:45:04;36.87;;;18.50;;
2191;SDS011;1102;49.718;11.902;2022-12-18T02:47:33;59.53;;;15.97;;
2191;SDS011;1102;49.718;11.902;2022-12-18T02:50:08;38.13;;;16.63;;
2191;SDS011;1102;49.718;11.902;2022-12-18T02:55:35;43.33;;;17.00;;
2191;SDS011;1102;49.718;11.902;2022-12-18T02:58:16;40.00;;;12.83;;
2191;SDS011;1102;49.718;11.902;2022-12-18T03:04:18;21.60;;;12.57;;
2191;SDS011;1102;49.718;11.902;2022-12-18T03:06:54;22.53;;;13.03;;
2191;SDS011;1102;49.718;11.902;2022-12-18T03:09:27;30.20;;;11.70;;
2191;SDS011;1102;49.718;11.902;2022-12-18T03:12:07;48.60;;;13.63;;
2191;SDS011;1102;49.718;11.902;2022-12-18T03:18:10;21.67;;;11.37;;
2191;SDS011;1102;49.718;11.902;2022-12-18T03:20:43;24.33;;;12.27;;
2191;SDS011;1102;49.718;11.902;2022-12-18T03:23:19;18.97;;;11.40;;
2191;SDS011;1102;49.718;11.902;2022-12-18T03:25:52;22.33;;;10.20;;
2191;SDS011;1102;49.718;11.902;2022-12-18T03:28:30;17.77;;;13.27;;
2191;SDS011;1102;49.718;11.902;2022-12-18T03:31:03;24.40;;;15.87;;
2191;SDS011;1102;49.718;11.902;2022-12-18T03:33:34;24.70;;;12.70;;
2191;SDS011;1102;49.718;11.902;2022-12-18T03:36:08;25.67;;;12.57;;
2191;SDS011;1102;49.718;11.902;2022-12-18T03:38:35;22.90;;;13.63;;
2191;SDS011;1102;49.718;11.902;2022-12-18T03:52:54;30.17;;;16.13;;
2191;SDS011;1102;49.718;11.902;2022-12-18T03:55:27;28.60;;;14.57;;
2191;SDS011;1102;49.718;11.902;2022-12-18T03:58:02;33.30;;;13.50;;
2191;SDS011;1102;49.718;11.902;2022-12-18T04:00:49;29.47;;;14.80;;
2191;SDS011;1102;49.718;11.902;2022-12-18T04:03:18;26.73;;;13.40;;
2191;SDS011;1102;49.718;11.902;2022-12-18T04:05:51;18.93;;;12.30;;
2191;SDS011;1102;49.718;11.902;2022-12-18T04:08:21;24.80;;;11.57;;
2191;SDS011;1102;49.718;11.902;2022-12-18T04:10:59;19.90;;;10.30;;
2191;SDS011;1102;49.718;11.902;2022-12-18T04:13:34;21.77;;;12.20;;
2191;SDS011;1102;49.718;11.902;2022-12-18T04:16:06;17.50;;;11.10;;
2191;SDS011;1102;49.718;11.902;2022-12-18T04:18:34;24.27;;;14.10;;
2191;SDS011;1102;49.718;11.902;2022-12-18T04:21:01;17.37;;;12.13;;
2191;SDS011;1102;49.718;11.902;2022-12-18T04:23:28;25.07;;;15.10;;
2191;SDS011;1102;49.718;11.902;2022-12-18T04:25:57;22.63;;;14.53;;
2191;SDS011;1102;49.718;11.902;2022-12-18T04:28:46;31.67;;;14.37;;
2191;SDS011;1102;49.718;11.902;2022-12-18T04:31:14;18.73;;;11.93;;
2191;SDS011;1102;49.718;11.902;2022-12-18T04:33:41;15.30;;;10.60;;
2191;SDS011;1102;49.718;11.902;2022-12-18T04:36:08;21.63;;;11.17;;
2191;SDS011;1102;49.718;11.902;2022-12-18T04:38:36;17.73;;;12.63;;
2191;SDS011;1102;49.718;11.902;2022-12-18T04:41:07;33.67;;;15.90;;
2191;SDS011;1102;49.718;11.902;2022-12-18T04:43:34;21.27;;;13.63;;
2191;SDS011;1102;49.718;11.902;2022-12-18T04:46:04;19.13;;;11.20;;
2191;SDS011;1102;49.718;11.902;2022-12-18T04:48:33;15.57;;;12.30;;
2191;SDS011;1102;49.718;11.902;2022-12-18T04:51:01;22.20;;;12.00;;
2191;SDS011;1102;49.718;11.902;2022-12-18T04:53:28;18.50;;;11.77;;
2191;SDS011;1102;49.718;11.902;2022-12-18T04:58:38;21.40;;;9.50;;
2191;SDS011;1102;49.718;11.902;2022-12-18T05:01:06;19.17;;;13.10;;
2191;SDS011;1102;49.718;11.902;2022-12-18T05:03:34;22.70;;;12.23;;
2191;SDS011;1102;49.718;11.902;2022-12-18T05:06:01;12.47;;;7.50;;
2191;SDS011;1102;49.718;11.902;2022-12-18T05:08:29;27.10;;;11.40;;
2191;SDS011;1102;49.718;11.902;2022-12-18T05:10:59;29.80;;;12.97;;
2191;SDS011;1102;49.718;11.902;2022-12-18T05:13:30;25.50;;;11.73;;
2191;SDS011;1102;49.718;11.902;2022-12-18T05:15:57;20.10;;;12.87;;
2191;SDS011;1102;49.718;11.902;2022-12-18T05:18:28;18.60;;;11.80;;
2191;SDS011;1102;49.718;11.902;2022-12-18T05:20:55;23.63;;;14.30;;
2191;SDS011;1102;49.718;11.902;2022-12-18T05:23:22;26.07;;;11.40;;
2191;SDS011;1102;49.718;11.902;2022-12-18T05:25:51;18.53;;;11.17;;
2191;SDS011;1102;49.718;11.902;2022-12-18T05:28:25;25.00;;;10.63;;
2191;SDS011;1102;49.718;11.902;2022-12-18T05:30:56;25.93;;;10.60;;
2191;SDS011;1102;49.718;11.902;2022-12-18T05:33:25;12.57;;;10.50;;
2191;SDS011;1102;49.718;11.902;2022-12-18T05:35:55;27.97;;;12.80;;
2191;SDS011;1102;49.718;11.902;2022-12-18T05:38:24;38.27;;;14.17;;
2191;SDS011;1102;49.718;11.902;2022-12-18T05:40:54;19.60;;;11.70;;
2191;SDS011;1102;49.718;11.902;2022-12-18T05:43:21;25.23;;;13.80;;
2191;SDS011;1102;49.718;11.902;2022-12-18T05:45:49;16.97;;;11.83;;
2191;SDS011;1102;49.718;11.902;2022-12-18T05:48:20;29.60;;;13.47;;
2191;SDS011;1102;49.718;11.902;2022-12-18T05:50:48;21.60;;;11.63;;
2191;SDS011;1102;49.718;11.902;2022-12-18T05:53:17;31.47;;;15.43;;
2191;SDS011;1102;49.718;11.902;2022-12-18T05:55:45;29.17;;;16.10;;
2191;SDS011;1102;49.718;11.902;2022-12-18T05:58:13;21.73;;;13.17;;
2191;SDS011;1102;49.718;11.902;2022-12-18T06:00:44;25.77;;;13.17;;
2191;SDS011;1102;49.718;11.902;2022-12-18T06:03:12;21.67;;;13.20;;
2191;SDS011;1102;49.718;11.902;2022-12-18T06:05:41;25.87;;;12.97;;
2191;SDS011;1102;49.718;11.902;2022-12-18T06:08:10;23.27;;;13.80;;
2191;SDS011;1102;49.718;11.902;2022-12-18T06:10:37;22.53;;;12.27;;
2191;SDS011;1102;49.718;11.902;2022-12-18T06:13:05;29.27;;;14.90;;
2191;SDS011;1102;49.718;11.902;2022-12-18T06:15:32;23.13;;;13.37;;
2191;SDS011;1102;49.718;11.902;2022-12-18T06:18:00;26.80;;;13.40;;
2191;SDS011;1102;49.718;11.902;2022-12-18T06:20:27;20.80;;;12.20;;
2191;SDS011;1102;49.718;11.902;2022-12-18T06:22:59;22.27;;;12.87;;
2191;SDS011;1102;49.718;11.902;2022-12-18T06:25:25;27.63;;;11.57;;
2191;SDS011;1102;49.718;11.902;2022-12-18T06:27:52;26.63;;;16.70;;
2191;SDS011;1102;49.718;11.902;2022-12-18T06:30:19;17.10;;;9.87;;
2191;SDS011;1102;49.718;11.902;2022-12-18T06:32:46;19.93;;;10.47;;
2191;SDS011;1102;49.718;11.902;2022-12-18T06:35:21;27.77;;;12.00;;
2191;SDS011;1102;49.718;11.902;2022-12-18T06:37:48;35.80;;;13.37;;
2191;SDS011;1102;49.718;11.902;2022-12-18T06:40:15;26.87;;;12.13;;
2191;SDS011;1102;49.718;11.902;2022-12-18T06:42:42;23.67;;;11.97;;
2191;SDS011;1102;49.718;11.902;2022-12-18T06:45:09;22.73;;;14.20;;
2191;SDS011;1102;49.718;11.902;2022-12-18T06:47:36;36.10;;;15.07;;
2191;SDS011;1102;49.718;11.902;2022-12-18T06:50:02;31.17;;;14.97;;
2191;SDS011;1102;49.718;11.902;2022-12-18T06:52:31;24.67;;;12.40;;
2191;SDS011;1102;49.718;11.902;2022-12-18T06:54:58;26.90;;;13.43;;
2191;SDS011;1102;49.718;11.902;2022-12-18T06:57:25;35.00;;;16.43;;
2191;SDS011;1102;49.718;11.902;2022-12-18T06:59:51;23.57;;;12.43;;
2191;SDS011;1102;49.718;11.902;2022-12-18T07:02:18;29.97;;;14.77;;
2191;SDS011;1102;49.718;11.902;2022-12-18T07:04:45;40.90;;;16.57;;
2191;SDS011;1102;49.718;11.902;2022-12-18T07:07:11;37.03;;;16.90;;
2191;SDS011;1102;49.718;11.902;2022-12-18T07:09:38;30.07;;;14.30;;
2191;SDS011;1102;49.718;11.902;2022-12-18T07:12:05;27.63;;;14.57;;
2191;SDS011;1102;49.718;11.902;2022-12-18T07:14:33;36.70;;;14.80;;
2191;SDS011;1102;49.718;11.902;2022-12-18T07:17:00;34.47;;;15.07;;
2191;SDS011;1102;49.718;11.902;2022-12-18T07:19:26;19.60;;;11.57;;
2191;SDS011;1102;49.718;11.902;2022-12-18T07:21:54;28.80;;;11.73;;
2191;SDS011;1102;49.718;11.902;2022-12-18T07:24:21;22.47;;;11.50;;
2191;SDS011;1102;49.718;11.902;2022-12-18T07:26:47;33.97;;;13.50;;
2191;SDS011;1102;49.718;11.902;2022-12-18T07:29:14;35.70;;;15.40;;
2191;SDS011;1102;49.718;11.902;2022-12-18T07:31:41;54.63;;;17.30;;
2191;SDS011;1102;49.718;11.902;2022-12-18T07:34:12;32.53;;;13.13;;
2191;SDS011;1102;49.718;11.902;2022-12-18T07:36:40;43.77;;;14.53;;
2191;SDS011;1102;49.718;11.902;2022-12-18T07:39:07;18.37;;;11.97;;
2191;SDS011;1102;49.718;11.902;2022-12-18T07:41:33;27.60;;;13.47;;
2191;SDS011;1102;49.718;11.902;2022-12-18T07:44:09;30.27;;;12.30;;
2191;SDS011;1102;49.718;11.902;2022-12-18T07:46:36;26.50;;;9.40;;
2191;SDS011;1102;49.718;11.902;2022-12-18T07:49:03;27.57;;;12.33;;
2191;SDS011;1102;49.718;11.902;2022-12-18T07:51:30;28.90;;;11.00;;
2191;SDS011;1102;49.718;11.902;2022-12-18T07:53:56;25.73;;;12.67;;
2191;SDS011;1102;49.718;11.902;2022-12-18T07:56:23;19.90;;;11.07;;
2191;SDS011;1102;49.718;11.902;2022-12-18T07:58:55;19.30;;;12.67;;
2191;SDS011;1102;49.718;11.902;2022-12-18T08:01:22;20.90;;;12.30;;
2191;SDS011;1102;49.718;11.902;2022-12-18T08:03:50;24.30;;;11.93;;
2191;SDS011;1102;49.718;11.902;2022-12-18T08:06:17;25.83;;;12.47;;
2191;SDS011;1102;49.718;11.902;2022-12-18T08:08:52;33.40;;;13.00;;
2191;SDS011;1102;49.718;11.902;2022-12-18T08:11:20;22.00;;;14.13;;
2191;SDS011;1102;49.718;11.902;2022-12-18T08:13:47;17.37;;;10.97;;
2191;SDS011;1102;49.718;11.902;2022-12-18T08:16:15;20.33;;;10.97;;
2191;SDS011;1102;49.718;11.902;2022-12-18T08:18:42;21.63;;;12.90;;
2191;SDS011;1102;49.718;11.902;2022-12-18T08:21:12;38.30;;;14.70;;
2191;SDS011;1102;49.718;11.902;2022-12-18T08:23:39;21.03;;;13.00;;
2191;SDS011;1102;49.718;11.902;2022-12-18T08:26:10;26.13;;;10.90;;
2191;SDS011;1102;49.718;11.902;2022-12-18T08:28:37;18.30;;;9.73;;
2191;SDS011;1102;49.718;11.902;2022-12-18T08:31:05;24.33;;;12.77;;
2191;SDS011;1102;49.718;11.902;2022-12-18T08:33:33;31.30;;;12.03;;
2191;SDS011;1102;49.718;11.902;2022-12-18T08:36:00;27.63;;;12.00;;
2191;SDS011;1102;49.718;11.902;2022-12-18T08:38:28;22.67;;;11.03;;
2191;SDS011;1102;49.718;11.902;2022-12-18T08:40:58;33.07;;;12.90;;
2191;SDS011;1102;49.718;11.902;2022-12-18T08:43:26;20.10;;;11.10;;
2191;SDS011;1102;49.718;11.902;2022-12-18T08:46:12;14.27;;;9.73;;
2191;SDS011;1102;49.718;11.902;2022-12-18T08:48:39;25.83;;;12.83;;
2191;SDS011;1102;49.718;11.902;2022-12-18T08:51:06;23.37;;;12.93;;
2191;SDS011;1102;49.718;11.902;2022-12-18T08:53:32;18.27;;;11.50;;
2191;SDS011;1102;49.718;11.902;2022-12-18T08:56:01;25.13;;;10.80;;
2191;SDS011;1102;49.718;11.902;2022-12-18T08:58:29;13.77;;;8.20;;
2191;SDS011;1102;49.718;11.902;2022-12-18T09:01:00;19.80;;;10.27;;
2191;SDS011;1102;49.718;11.902;2022-12-18T09:03:30;16.93;;;9.47;;
2191;SDS011;1102;49.718;11.902;2022-12-18T09:05:57;19.63;;;10.67;;
2191;SDS011;1102;49.718;11.902;2022-12-18T09:08:24;16.63;;;11.00;;
2191;SDS011;1102;49.718;11.902;2022-12-18T09:10:51;18.90;;;9.80;;
2191;SDS011;1102;49.718;11.902;2022-12-18T09:13:18;22.43;;;12.57;;
2191;SDS011;1102;49.718;11.902;2022-12-18T09:15:46;19.80;;;10.77;;
2191;SDS011;1102;49.718;11.902;2022-12-18T09:18:21;24.67;;;12.70;;
2191;SDS011;1102;49.718;11.902;2022-12-18T09:20:48;21.63;;;11.70;;
2191;SDS011;1102;49.718;11.902;2022-12-18T09:23:16;20.23;;;11.23;;
2191;SDS011;1102;49.718;11.902;2022-12-18T09:25:43;18.57;;;10.40;;
2191;SDS011;1102;49.718;11.902;2022-12-18T09:28:10;16.13;;;9.60;;
2191;SDS011;1102;49.718;11.902;2022-12-18T09:30:39;15.83;;;12.17;;
2191;SDS011;1102;49.718;11.902;2022-12-18T09:33:09;19.20;;;11.40;;
2191;SDS011;1102;49.718;11.902;2022-12-18T09:35:36;13.70;;;10.30;;
2191;SDS011;1102;49.718;11.902;2022-12-18T09:38:03;20.60;;;11.27;;
2191;SDS011;1102;49.718;11.902;2022-12-18T09:40:35;21.77;;;12.67;;
2191;SDS011;1102;49.718;11.902;2022-12-18T09:43:06;18.90;;;11.00;;
2191;SDS011;1102;49.718;11.902;2022-12-18T09:45:42;13.70;;;9.73;;
2191;SDS011;1102;49.718;11.902;2022-12-18T09:48:15;15.67;;;10.37;;
2191;SDS011;1102;49.718;11.902;2022-12-18T09:50:50;16.97;;;9.80;;
2191;SDS011;1102;49.718;11.902;2022-12-18T09:53:21;17.63;;;9.80;;
2191;SDS011;1102;49.718;11.902;2022-12-18T09:55:52;11.37;;;7.67;;
2191;SDS011;1102;49.718;11.902;2022-12-18T09:58:28;14.57;;;10.00;;
2191;SDS011;1102;49.718;11.902;2022-12-18T10:00:56;19.33;;;9.70;;
2191;SDS011;1102;49.718;11.902;2022-12-18T10:03:23;17.10;;;8.67;;
2191;SDS011;1102;49.718;11.902;2022-12-18T10:16:49;21.73;;;11.60;;
2191;SDS011;1102;49.718;11.902;2022-12-18T10:22:11;16.10;;;7.67;;
2191;SDS011;1102;49.718;11.902;2022-12-18T10:27:27;26.47;;;11.40;;
2191;SDS011;1102;49.718;11.902;2022-12-18T10:29:58;14.57;;;10.10;;
2191;SDS011;1102;49.718;11.902;2022-12-18T10:32:28;23.60;;;12.40;;
2191;SDS011;1102;49.718;11.902;2022-12-18T10:34:56;15.77;;;10.73;;
2191;SDS011;1102;49.718;11.902;2022-12-18T10:37:27;12.67;;;10.00;;
2191;SDS011;1102;49.718;11.902;2022-12-18T10:42:45;24.83;;;9.40;;
2191;SDS011;1102;49.718;11.902;2022-12-18T10:45:15;15.40;;;10.90;;
2191;SDS011;1102;49.718;11.902;2022-12-18T10:47:46;13.60;;;10.23;;
2191;SDS011;1102;49.718;11.902;2022-12-18T10:50:34;18.93;;;11.03;;
2191;SDS011;1102;49.718;11.902;2022-12-18T10:53:24;8.33;;;7.30;;
2191;SDS011;1102;49.718;11.902;2022-12-18T10:55:54;19.90;;;10.53;;
2191;SDS011;1102;49.718;11.902;2022-12-18T11:06:03;25.30;;;12.70;;
2191;SDS011;1102;49.718;11.902;2022-12-18T11:12:14;17.00;;;10.40;;
2191;SDS011;1102;49.718;11.902;2022-12-18T11:14:46;15.33;;;11.20;;
2191;SDS011;1102;49.718;11.902;2022-12-18T11:17:33;21.63;;;13.40;;
2191;SDS011;1102;49.718;11.902;2022-12-18T11:20:03;22.40;;;11.83;;
2191;SDS011;1102;49.718;11.902;2022-12-18T11:22:33;18.43;;;12.37;;
2191;SDS011;1102;49.718;11.902;2022-12-18T11:25:05;14.43;;;10.00;;
2191;SDS011;1102;49.718;11.902;2022-12-18T11:28:03;21.27;;;12.60;;
2191;SDS011;1102;49.718;11.902;2022-12-18T11:30:49;21.03;;;12.47;;
2191;SDS011;1102;49.718;11.902;2022-12-18T11:33:18;20.40;;;12.80;;
2191;SDS011;1102;49.718;11.902;2022-12-18T11:35:51;13.53;;;9.20;;
2191;SDS011;1102;49.718;11.902;2022-12-18T11:38:23;16.83;;;11.53;;
2191;SDS011;1102;49.718;11.902;2022-12-18T11:46:09;16.77;;;11.57;;
2191;SDS011;1102;49.718;11.902;2022-12-18T11:48:58;17.03;;;12.13;;
2191;SDS011;1102;49.718;11.902;2022-12-18T11:54:29;23.83;;;13.20;;
2191;SDS011;1102;49.718;11.902;2022-12-18T11:56:56;19.03;;;12.00;;
2191;SDS011;1102;49.718;11.902;2022-12-18T12:16:29;17.37;;;10.90;;
2191;SDS011;1102;49.718;11.902;2022-12-18T12:22:18;14.90;;;9.50;;
2191;SDS011;1102;49.718;11.902;2022-12-18T12:32:34;17.30;;;10.60;;
2191;SDS011;1102;49.718;11.902;2022-12-18T12:40:35;17.97;;;11.53;;
2191;SDS011;1102;49.718;11.902;2022-12-18T12:46:09;16.50;;;10.87;;
2191;SDS011;1102;49.718;11.902;2022-12-18T12:51:29;18.20;;;11.87;;
2191;SDS011;1102;49.718;11.902;2022-12-18T12:54:01;16.57;;;10.63;;
2191;SDS011;1102;49.718;11.902;2022-12-18T12:57:08;15.50;;;12.63;;
2191;SDS011;1102;49.718;11.902;2022-12-18T13:05:10;17.07;;;10.90;;
2191;SDS011;1102;49.718;11.902;2022-12-18T13:07:59;23.20;;;11.90;;
2191;SDS011;1102;49.718;11.902;2022-12-18T13:10:33;24.90;;;14.67;;
2191;SDS011;1102;49.718;11.902;2022-12-18T13:13:11;28.87;;;16.70;;
2191;SDS011;1102;49.718;11.902;2022-12-18T13:15:47;16.57;;;10.70;;
2191;SDS011;1102;49.718;11.902;2022-12-18T13:18:16;16.00;;;12.20;;
2191;SDS011;1102;49.718;11.902;2022-12-18T13:20:50;22.27;;;16.70;;
2191;SDS011;1102;49.718;11.902;2022-12-18T13:25:57;15.23;;;8.77;;
2191;SDS011;1102;49.718;11.902;2022-12-18T13:33:50;15.43;;;9.27;;
2191;SDS011;1102;49.718;11.902;2022-12-18T13:36:37;16.40;;;11.30;;
2191;SDS011;1102;49.718;11.902;2022-12-18T13:39:11;15.40;;;10.17;;
2191;SDS011;1102;49.718;11.902;2022-12-18T13:44:40;18.67;;;10.10;;
2191;SDS011;1102;49.718;11.902;2022-12-18T13:47:27;22.37;;;13.40;;
2191;SDS011;1102;49.718;11.902;2022-12-18T13:49:59;18.50;;;9.83;;
2191;SDS011;1102;49.718;11.902;2022-12-18T13:52:27;17.53;;;13.63;;
2191;SDS011;1102;49.718;11.902;2022-12-18T13:55:00;17.97;;;10.90;;
2191;SDS011;1102;49.718;11.902;2022-12-18T13:57:31;16.83;;;11.00;;
2191;SDS011;1102;49.718;11.902;2022-12-18T13:59:59;13.40;;;10.60;;
2191;SDS011;1102;49.718;11.902;2022-12-18T14:02:49;18.67;;;12.27;;
2191;SDS011;1102;49.718;11.902;2022-12-18T14:05:30;20.50;;;13.53;;
2191;SDS011;1102;49.718;11.902;2022-12-18T14:08:11;16.37;;;11.63;;
2191;SDS011;1102;49.718;11.902;2022-12-18T14:10:44;14.63;;;12.10;;
2191;SDS011;1102;49.718;11.902;2022-12-18T14:13:17;19.77;;;13.03;;
2191;SDS011;1102;49.718;11.902;2022-12-18T14:15:49;20.40;;;12.90;;
2191;SDS011;1102;49.718;11.902;2022-12-18T14:20:50;12.47;;;9.27;;
2191;SDS011;1102;49.718;11.902;2022-12-18T14:26:02;13.47;;;11.23;;
2191;SDS011;1102;49.718;11.902;2022-12-18T14:28:45;17.83;;;10.90;;
2191;SDS011;1102;49.718;11.902;2022-12-18T14:31:22;16.10;;;11.43;;
2191;SDS011;1102;49.718;11.902;2022-12-18T14:33:52;14.37;;;10.50;;
2191;SDS011;1102;49.718;11.902;2022-12-18T14:36:23;16.97;;;12.70;;
2191;SDS011;1102;49.718;11.902;2022-12-18T14:38:53;12.10;;;9.23;;
2191;SDS011;1102;49.718;11.902;2022-12-18T14:41:22;19.37;;;12.03;;
2191;SDS011;1102;49.718;11.902;2022-12-18T14:43:51;18.90;;;9.50;;
2191;SDS011;1102;49.718;11.902;2022-12-18T14:46:29;16.23;;;11.40;;
2191;SDS011;1102;49.718;11.902;2022-12-18T14:51:59;28.07;;;12.47;;
2191;SDS011;1102;49.718;11.902;2022-12-18T14:54:29;13.43;;;9.90;;
2191;SDS011;1102;49.718;11.902;2022-12-18T14:57:02;13.10;;;9.60;;
2191;SDS011;1102;49.718;11.902;2022-12-18T14:59:30;16.00;;;8.03;;
2191;SDS011;1102;49.718;11.902;2022-12-18T15:04:36;17.03;;;9.43;;
2191;SDS011;1102;49.718;11.902;2022-12-18T15:10:09;16.13;;;9.43;;
2191;SDS011;1102;49.718;11.902;2022-12-18T15:12:41;26.97;;;10.80;;
2191;SDS011;1102;49.718;11.902;2022-12-18T15:18:00;17.20;;;10.40;;
2191;SDS011;1102;49.718;11.902;2022-12-18T15:20:39;19.43;;;11.13;;
2191;SDS011;1102;49.718;11.902;2022-12-18T15:23:15;15.17;;;9.90;;
2191;SDS011;1102;49.718;11.902;2022-12-18T15:25:55;20.57;;;12.00;;
2191;SDS011;1102;49.718;11.902;2022-12-18T15:28:36;13.13;;;9.50;;
2191;SDS011;1102;49.718;11.902;2022-12-18T15:36:20;18.37;;;11.90;;
2191;SDS011;1102;49.718;11.902;2022-12-18T15:38:53;18.37;;;12.63;;
2191;SDS011;1102;49.718;11.902;2022-12-18T15:41:31;19.00;;;11.67;;
2191;SDS011;1102;49.718;11.902;2022-12-18T15:44:01;22.13;;;11.67;;
2191;SDS011;1102;49.718;11.902;2022-12-18T15:46:29;17.70;;;10.80;;
2191;SDS011;1102;49.718;11.902;2022-12-18T15:48:57;21.47;;;10.53;;
2191;SDS011;1102;49.718;11.902;2022-12-18T15:51:29;22.93;;;12.60;;
2191;SDS011;1102;49.718;11.902;2022-12-18T15:53:59;13.50;;;10.90;;
2191;SDS011;1102;49.718;11.902;2022-12-18T15:56:30;18.37;;;13.70;;
2191;SDS011;1102;49.718;11.902;2022-12-18T15:59:16;14.10;;;11.30;;
2191;SDS011;1102;49.718;11.902;2022-12-18T16:01:49;15.17;;;11.23;;
2191;SDS011;1102;49.718;11.902;2022-12-18T16:04:18;21.50;;;13.40;;
2191;SDS011;1102;49.718;11.902;2022-12-18T16:06:47;16.20;;;10.90;;
2191;SDS011;1102;49.718;11.902;2022-12-18T16:09:35;16.73;;;12.17;;
2191;SDS011;1102;49.718;11.902;2022-12-18T16:12:02;21.87;;;13.27;;
2191;SDS011;1102;49.718;11.902;2022-12-18T16:14:29;16.33;;;12.30;;
2191;SDS011;1102;49.718;11.902;2022-12-18T16:16:57;21.63;;;14.40;;
2191;SDS011;1102;49.718;11.902;2022-12-18T16:19:26;19.03;;;12.33;;
2191;SDS011;1102;49.718;11.902;2022-12-18T16:21:54;22.67;;;12.73;;
2191;SDS011;1102;49.718;11.902;2022-12-18T16:24:23;13.93;;;10.90;;
2191;SDS011;1102;49.718;11.902;2022-12-18T16:26:52;18.70;;;12.47;;
2191;SDS011;1102;49.718;11.902;2022-12-18T16:29:20;23.70;;;12.50;;
2191;SDS011;1102;49.718;11.902;2022-12-18T16:31:51;17.57;;;12.03;;
2191;SDS011;1102;49.718;11.902;2022-12-18T16:36:52;31.27;;;18.57;;
2191;SDS011;1102;49.718;11.902;2022-12-18T16:39:30;28.77;;;17.10;;
2191;SDS011;1102;49.718;11.902;2022-12-18T16:41:58;17.87;;;13.37;;
2191;SDS011;1102;49.718;11.902;2022-12-18T16:44:27;22.77;;;15.07;;
2191;SDS011;1102;49.718;11.902;2022-12-18T16:46:53;19.60;;;11.30;;
2191;SDS011;1102;49.718;11.902;2022-12-18T16:49:20;25.03;;;11.90;;
2191;SDS011;1102;49.718;11.902;2022-12-18T16:51:50;26.50;;;15.77;;
2191;SDS011;1102;49.718;11.902;2022-12-18T16:54:16;20.40;;;11.80;;
2191;SDS011;1102;49.718;11.902;2022-12-18T16:56:45;21.93;;;11.50;;
2191;SDS011;1102;49.718;11.902;2022-12-18T16:59:15;24.60;;;14.20;;
2191;SDS011;1102;49.718;11.902;2022-12-18T17:01:43;22.50;;;13.63;;
2191;SDS011;1102;49.718;11.902;2022-12-18T17:04:10;21.10;;;12.77;;
2191;SDS011;1102;49.718;11.902;2022-12-18T17:06:39;25.33;;;13.77;;
2191;SDS011;1102;49.718;11.902;2022-12-18T17:09:13;16.53;;;11.67;;
2191;SDS011;1102;49.718;11.902;2022-12-18T17:11:45;18.93;;;13.10;;
2191;SDS011;1102;49.718;11.902;2022-12-18T17:14:16;19.63;;;13.60;;
2191;SDS011;1102;49.718;11.902;2022-12-18T17:16:45;20.53;;;13.10;;
2191;SDS011;1102;49.718;11.902;2022-12-18T17:19:12;24.60;;;14.07;;
2191;SDS011;1102;49.718;11.902;2022-12-18T17:21:43;20.77;;;14.90;;
2191;SDS011;1102;49.718;11.902;2022-12-18T17:24:12;24.03;;;14.77;;
2191;SDS011;1102;49.718;11.902;2022-12-18T17:26:39;27.90;;;14.67;;
2191;SDS011;1102;49.718;11.902;2022-12-18T17:29:06;20.83;;;14.40;;